Terminal Aerodrome Forecast
Issued by NWS

Home | Current Version | Previous Version | Text Only | Print | Product List | Glossary On
Versions: 1 2 3 4 5 6 7 8 9 10 11 12 13 14 15 16 17 18 19 20 21 22 23 24 25 26
000
FTUS42 KRAH 230204 AAB
TAFRWI
TAF AMD
KRWI 230204Z 2302/2324 VRB03KT P6SM VCSH BKN080 OVC250
      TEMPO 2302/2305 3SM -SHRA SCT007 BKN025 OVC035
     FM230900 VRB03KT 5SM -SHRA BR OVC008
     FM231500 17009KT 4SM BR VCSH SCT008 OVC015=

USA.gov is the U.S. government's official web portal to all federal, state and local government web resources and services.